Time;durP1;ratioP1;P1;durP2;ratioP2;P2;SDS_P1;SDS_P2;PMS_P1;PMS_P2;Temp;Humidity;BMP_temperature;BMP_pressure;BME280_temperature;BME280_humidity;BME280_pressure;Samples;Min_cycle;Max_cycle;Signal;HPM_P1;HPM_P2
2021/12/26 00:09:32;;;;;;;2.07;1.70;;;;;;;;;;21236256;27;20256;-78
2021/12/26 00:19:34;;;;;;;2.90;1.83;;;;;;;;;;21201877;27;20227;-78
2021/12/26 00:29:36;;;;;;;2.37;1.47;;;;;;;;;;21234957;27;20245;-77
2021/12/26 00:39:38;;;;;;;1.90;1.33;;;;;;;;;;21189713;27;20257;-77
2021/12/26 00:49:40;;;;;;;1.73;1.53;;;;;;;;;;21212108;27;20256;-77
2021/12/26 00:59:42;;;;;;;4.63;1.63;;;;;;;;;;21225684;27;20195;-77
2021/12/26 01:09:49;;;;;;;1.77;1.40;;;;;;;;;;21231996;27;20231;-77
2021/12/26 01:19:53;;;;;;;2.40;1.90;;;;;;;;;;21232266;27;20219;-77
2021/12/26 01:29:55;;;;;;;3.20;1.73;;;;;;;;;;21195698;27;20223;-76
2021/12/26 01:39:57;;;;;;;1.80;1.43;;;;;;;;;;21105613;27;20215;-77
2021/12/26 01:50:19;;;;;;;1.27;0.83;;;;;;;;;;21226343;27;20227;-76
2021/12/26 02:00:23;;;;;;;1.40;1.20;;;3.30;99.90;;;;;;21169088;27;20284;-77
2021/12/26 02:10:25;;;;;;;1.97;1.17;;;;;;;;;;21142542;28;20272;-76
2021/12/26 02:30:41;;;;;;;1.57;1.40;;;;;;;;;;21124558;28;20228;-77
2021/12/26 02:40:44;;;;;;;2.30;1.47;;;3.10;99.90;;;;;;21139909;28;20280;-77
2021/12/26 02:50:52;;;;;;;1.60;1.30;;;3.20;99.90;;;;;;21106837;28;20297;-78
2021/12/26 03:01:13;;;;;;;1.33;1.10;;;;;;;;;;21139978;28;20212;-78
2021/12/26 03:11:16;;;;;;;1.73;1.30;;;;;;;;;;21123067;28;20219;-79
2021/12/26 03:21:17;;;;;;;2.20;1.23;;;;;;;;;;21122286;28;20219;-78
2021/12/26 03:31:19;;;;;;;1.93;1.37;;;;;;;;;;21122800;28;20220;-78
2021/12/26 03:41:22;;;;;;;1.60;1.03;;;;;;;;;;21122091;28;20269;-77
2021/12/26 03:51:30;;;;;;;2.57;1.17;;;;;;;;;;21123808;28;20216;-78
2021/12/26 04:01:32;;;;;;;2.03;1.27;;;3.00;99.90;;;;;;21135496;28;20555;-77
2021/12/26 04:11:36;;;;;;;1.47;1.07;;;;;;;;;;21134148;28;20228;-77
2021/12/26 04:21:39;;;;;;;1.70;1.23;;;;;;;;;;21151217;28;20603;-77
2021/12/26 04:31:41;;;;;;;1.33;0.67;;;;;;;;;;21130196;27;20224;-78
2021/12/26 04:41:45;;;;;;;2.37;1.50;;;;;;;;;;21189442;27;20208;-79
2021/12/26 04:52:23;;;;;;;2.10;1.50;;;;;;;;;;21134665;27;20223;-78
2021/12/26 05:02:28;;;;;;;2.20;1.37;;;;;;;;;;21155528;27;20283;-77
2021/12/26 05:12:29;;;;;;;1.60;1.27;;;;;;;;;;21232053;27;20227;-79
2021/12/26 05:22:31;;;;;;;1.97;1.30;;;;;;;;;;21197370;27;20219;-77
2021/12/26 05:32:33;;;;;;;1.47;1.07;;;;;;;;;;21213538;27;20223;-77
2021/12/26 05:42:35;;;;;;;1.13;0.77;;;2.40;99.90;;;;;;21216417;27;20260;-78
2021/12/26 05:52:37;;;;;;;1.43;1.00;;;;;;;;;;21195045;27;20256;-78
2021/12/26 06:02:50;;;;;;;1.90;1.50;;;2.90;99.90;;;;;;21227635;27;20203;-77
2021/12/26 06:12:53;;;;;;;2.27;1.27;;;;;;;;;;21210409;27;20687;-77
2021/12/26 06:22:55;;;;;;;1.57;1.13;;;;;;;;;;21209436;27;20211;-77
2021/12/26 06:33:32;;;;;;;1.90;1.10;;;;;;;;;;21118476;27;20617;-78
2021/12/26 06:43:52;;;;;;;1.53;1.13;;;;;;;;;;21124926;28;20269;-76
2021/12/26 06:54:26;;;;;;;2.27;1.63;;;;;;;;;;21111770;28;20303;-77
2021/12/26 07:04:28;;;;;;;2.07;1.40;;;;;;;;;;21139541;28;20280;-77
2021/12/26 07:14:30;;;;;;;1.70;1.13;;;;;;;;;;21139075;28;20253;-77
2021/12/26 07:24:33;;;;;;;2.00;1.50;;;;;;;;;;21149031;28;20258;-78
2021/12/26 07:34:35;;;;;;;2.07;1.30;;;2.70;99.90;;;;;;21135682;28;20268;-78
2021/12/26 07:44:37;;;;;;;2.23;1.43;;;2.80;99.90;;;;;;21158033;27;20207;-77
2021/12/26 07:54:39;;;;;;;1.73;1.00;;;;;;;;;;21190818;27;20216;-78
2021/12/26 08:05:00;;;;;;;2.73;1.40;;;;;;;;;;21053922;28;20212;-77
2021/12/26 08:15:13;;;;;;;3.70;2.13;;;;;;;;;;21066471;28;20273;-77
2021/12/26 08:25:15;;;;;;;2.50;1.77;;;;;;;;;;21050629;28;20224;-77
2021/12/26 08:35:17;;;;;;;2.00;1.20;;;2.60;99.90;;;;;;21160521;27;20696;-78
2021/12/26 08:45:19;;;;;;;1.60;1.40;;;;;;;;;;21217087;27;20217;-77
2021/12/26 08:55:23;;;;;;;2.10;1.63;;;;;;;;;;21252682;27;20227;-77
2021/12/26 09:05:25;;;;;;;2.37;1.43;;;;;;;;;;21233055;27;20221;-77
2021/12/26 09:15:27;;;;;;;2.20;1.40;;;;;;;;;;21249393;27;20222;-78
2021/12/26 09:25:29;;;;;;;2.23;1.40;;;;;;;;;;21214644;27;20184;-77
2021/12/26 09:35:32;;;;;;;3.03;1.73;;;;;;;;;;21236922;27;20350;-77
2021/12/26 09:45:33;;;;;;;3.03;1.93;;;;;;;;;;21229640;27;20271;-77
2021/12/26 09:55:35;;;;;;;2.00;1.33;;;;;;;;;;21211463;27;20246;-77
2021/12/26 10:05:53;;;;;;;2.10;1.50;;;2.90;99.90;;;;;;21245815;27;20215;-77
2021/12/26 10:15:56;;;;;;;1.83;1.53;;;;;;;;;;21244373;27;20227;-77
2021/12/26 10:25:58;;;;;;;2.53;1.87;;;;;;;;;;21226244;27;20237;-77
2021/12/26 10:36:05;;;;;;;3.37;2.40;;;3.00;99.90;;;;;;21245164;27;20207;-78
2021/12/26 10:46:14;;;;;;;2.73;1.73;;;2.80;99.90;;;;;;21209313;27;20559;-78
2021/12/26 10:56:21;;;;;;;2.30;1.50;;;;;;;;;;21242713;27;20252;-78
2021/12/26 11:06:23;;;;;;;2.70;1.90;;;;;;;;;;21218592;27;20211;-77
2021/12/26 11:16:36;;;;;;;5.57;2.87;;;3.00;99.90;;;;;;21249046;27;20287;-77
2021/12/26 11:26:38;;;;;;;5.70;2.97;;;;;;;;;;21259122;27;20264;-80
2021/12/26 11:36:40;;;;;;;3.37;2.67;;;;;;;;;;21240559;27;20223;-77
2021/12/26 11:47:29;;;;;;;7.67;5.50;;;;;;;;;;21242811;27;20212;-77
2021/12/26 11:57:59;;;;;;;13.80;9.70;;;;;;;;;;21238827;27;20206;-79
2021/12/26 12:08:03;;;;;;;7.73;6.10;;;;;;;;;;21222167;27;20755;-77
2021/12/26 12:18:17;;;;;;;4.97;3.13;;;3.10;99.90;;;;;;21236724;27;20226;-77
2021/12/26 12:28:20;;;;;;;3.27;2.53;;;;;;;;;;21232180;27;20219;-76
2021/12/26 12:38:22;;;;;;;5.80;3.03;;;;;;;;;;21228925;27;20272;-77
2021/12/26 12:48:25;;;;;;;7.70;2.63;;;3.30;99.90;;;;;;21253782;27;20219;-78
2021/12/26 12:58:31;;;;;;;3.63;2.67;;;;;;;;;;21252479;27;20207;-78
2021/12/26 13:08:33;;;;;;;2.83;2.17;;;;;;;;;;21234090;27;20665;-78
2021/12/26 13:18:38;;;;;;;3.40;2.27;;;;;;;;;;21232979;27;20214;-79
2021/12/26 13:38:53;;;;;;;3.10;2.30;;;3.10;99.90;;;;;;21316571;27;20567;-66
2021/12/26 13:48:56;;;;;;;3.90;2.77;;;;;;;;;;21279974;27;20218;-66
2021/12/26 13:58:58;;;;;;;3.50;1.77;;;;;;;;;;21296053;27;20175;-66
2021/12/26 14:09:00;;;;;;;2.90;1.87;;;;;;;;;;21312518;27;20186;-66
2021/12/26 14:19:06;;;;;;;2.27;1.63;;;;;;;;;;21294125;27;20243;-66
2021/12/26 14:29:09;;;;;;;1.90;1.33;;;;;;;;;;21271320;27;20545;-66
2021/12/26 14:39:12;;;;;;;2.93;2.20;;;3.70;99.90;;;;;;21266351;27;20234;-66
2021/12/26 14:49:17;;;;;;;2.73;1.83;;;3.00;99.90;;;;;;21218698;27;20219;-66
2021/12/26 14:59:26;;;;;;;3.27;2.13;;;;;;;;;;21231374;27;20677;-66
2021/12/26 15:09:32;;;;;;;2.17;1.57;;;;;;;;;;21225928;27;20207;-66
2021/12/26 15:19:41;;;;;;;3.07;2.00;;;3.00;99.90;;;;;;21228297;27;20569;-66
2021/12/26 15:29:43;;;;;;;3.33;2.13;;;;;;;;;;21201618;27;20769;-66
2021/12/26 15:39:45;;;;;;;5.03;2.23;;;;;;;;;;21225069;27;20596;-66
2021/12/26 15:49:47;;;;;;;3.20;2.10;;;;;;;;;;21161962;27;20683;-66
2021/12/26 15:59:49;;;;;;;4.37;2.83;;;;;;;;;;21118052;28;20248;-66
2021/12/26 16:09:51;;;;;;;3.93;2.63;;;;;;;;;;21101820;28;20273;-66
2021/12/26 16:19:54;;;;;;;1.77;1.33;;;;;;;;;;21134432;28;20276;-65
2021/12/26 16:29:56;;;;;;;2.53;2.00;;;;;;;;;;21084126;28;20627;-66
2021/12/26 16:39:58;;;;;;;7.37;3.20;;;;;;;;;;21161084;27;20218;-65
2021/12/26 16:50:00;;;;;;;4.57;2.63;;;;;;;;;;21198006;27;20222;-66
2021/12/26 17:00:03;;;;;;;4.23;3.10;;;;;;;;;;21193684;27;21355;-65
2021/12/26 17:10:06;;;;;;;5.30;2.70;;;;;;;;;;21181126;27;20223;-66
2021/12/26 17:20:09;;;;;;;3.10;2.10;;;;;;;;;;21191414;27;20690;-66
2021/12/26 17:30:17;;;;;;;3.90;2.33;;;;;;;;;;21197994;27;20271;-66
2021/12/26 17:40:19;;;;;;;3.17;2.00;;;;;;;;;;21172324;27;20684;-66
2021/12/26 17:50:22;;;;;;;3.23;1.90;;;;;;;;;;21219103;28;20203;-65
2021/12/26 18:00:24;;;;;;;3.67;2.07;;;;;;;;;;21202915;27;20243;-65
2021/12/26 18:10:26;;;;;;;3.37;1.87;;;;;;;;;;21188644;27;20215;-66
2021/12/26 18:20:31;;;;;;;3.27;2.17;;;;;;;;;;21212862;27;20223;-66
2021/12/26 18:30:33;;;;;;;3.20;2.07;;;;;;;;;;21211213;27;20243;-65
2021/12/26 18:40:36;;;;;;;3.10;2.37;;;;;;;;;;21184096;27;20614;-65
2021/12/26 18:50:39;;;;;;;2.10;1.87;;;;;;;;;;21118472;28;20208;-65
2021/12/26 19:00:45;;;;;;;2.73;1.90;;;3.20;99.90;;;;;;21120176;28;20208;-66
2021/12/26 19:10:59;;;;;;;2.03;1.53;;;3.10;99.90;;;;;;21129329;28;20215;-65
2021/12/26 19:21:18;;;;;;;1.77;1.47;;;;;;;;;;21156122;22;20228;-67
2021/12/26 19:31:23;;;;;;;3.83;1.70;;;;;;;;;;21027338;28;20200;-68
2021/12/26 19:41:26;;;;;;;2.33;1.80;;;4.10;99.90;;;;;;21025840;28;20417;-67
2021/12/26 19:51:31;;;;;;;3.17;2.30;;;4.50;99.90;;;;;;21021645;28;20262;-67
2021/12/26 20:01:33;;;;;;;5.47;2.77;;;;;;;;;;21024416;28;20229;-67
2021/12/26 20:11:35;;;;;;;2.70;2.07;;;;;;;;;;21039129;28;20220;-67
2021/12/26 20:21:37;;;;;;;3.33;2.27;;;;;;;;;;21022718;28;20232;-67
2021/12/26 20:31:40;;;;;;;4.13;2.87;;;3.30;99.90;;;;;;21038049;28;20220;-67
2021/12/26 20:41:42;;;;;;;4.53;3.10;;;;;;;;;;21020509;28;20224;-67
2021/12/26 20:51:46;;;;;;;3.23;2.47;;;;;;;;;;21038845;28;20302;-66
2021/12/26 21:01:50;;;;;;;3.77;2.30;;;;;;;;;;21060032;28;20698;-66
2021/12/26 21:11:52;;;;;;;2.27;1.60;;;;;;;;;;21008078;28;20217;-66
2021/12/26 21:21:55;;;;;;;2.47;1.43;;;;;;;;;;21056552;22;20638;-78
2021/12/26 21:31:57;;;;;;;1.70;1.43;;;;;;;;;;21114417;28;20220;-77
2021/12/26 21:42:00;;;;;;;2.40;1.63;;;;;;;;;;21102059;28;20281;-78
2021/12/26 21:52:02;;;;;;;1.90;1.40;;;;;;;;;;21106449;28;20281;-77
2021/12/26 22:02:08;;;;;;;2.23;1.67;;;;;;;;;;21145143;28;20924;-78
2021/12/26 22:12:11;;;;;;;1.63;1.33;;;;;;;;;;21135850;27;20213;-77
2021/12/26 22:22:15;;;;;;;2.73;1.70;;;;;;;;;;21031687;28;20266;-78
2021/12/26 22:32:17;;;;;;;2.13;1.53;;;;;;;;;;21089539;28;20212;-78
2021/12/26 22:42:19;;;;;;;1.67;1.23;;;;;;;;;;21066233;28;20289;-78
2021/12/26 22:52:21;;;;;;;2.30;1.53;;;;;;;;;;21134475;28;20231;-79
2021/12/26 23:02:23;;;;;;;1.73;1.23;;;;;;;;;;21156946;28;20262;-78
2021/12/26 23:12:26;;;;;;;1.03;0.90;;;;;;;;;;21117743;28;20204;-80
2021/12/26 23:22:32;;;;;;;0.80;0.70;;;;;;;;;;21140157;28;20216;-79
2021/12/26 23:32:44;;;;;;;2.47;1.73;;;;;;;;;;21142754;28;20384;-79
2021/12/26 23:42:47;;;;;;;3.80;2.00;;;;;;;;;;21132393;28;20284;-79
2021/12/26 23:52:50;;;;;;;2.70;1.70;;;;;;;;;;21147419;27;20234;-78
